Landaff, New Hampshire
Current Conditions -  °F | °C
As of 6:15 PM on Monday 22 Dec 2014 (Local Time) from K1P1 Reporting Station
Unknown Precip Unknown Precip  
Wind Chill: 32°   Ceiling: 1800
Heat Index: 32°   Visibility: 10mi
Dew Point: 32°   Wind: 0mph
Humidity: 99%   Direction: NA
Pressure: 30.34"   Gusts: NA
Location:  44.1173°N, 71.8999°W
Report Text: K1P1 222315Z AUTO 00000KT 10SM UP OVC018 00/00 A3034 RMK AO2 T00010000
Loading
Personal Weather Stations






























Interactive Weather Map New forecast layout! Learn more

10-Day Weather Forecast

Advertisements
Track Severe Weather on mobile